sensor_id;sensor_type;location;lat;lon;timestamp;P1;durP1;ratioP1;P2;durP2;ratioP2
23617;SDS011;18207;32.078;34.818;2023-10-31T00:01:35;1.60;;;1.50;;
23617;SDS011;18207;32.078;34.818;2023-10-31T00:04:05;1.55;;;1.48;;
23617;SDS011;18207;32.078;34.818;2023-10-31T00:06:36;1.75;;;1.67;;
23617;SDS011;18207;32.078;34.818;2023-10-31T00:09:06;1.70;;;1.60;;
23617;SDS011;18207;32.078;34.818;2023-10-31T00:11:37;1.92;;;1.80;;
23617;SDS011;18207;32.078;34.818;2023-10-31T00:14:11;1.60;;;1.50;;
23617;SDS011;18207;32.078;34.818;2023-10-31T00:16:56;1.75;;;1.65;;
23617;SDS011;18207;32.078;34.818;2023-10-31T00:19:26;1.60;;;1.50;;
23617;SDS011;18207;32.078;34.818;2023-10-31T00:21:58;1.70;;;1.60;;
23617;SDS011;18207;32.078;34.818;2023-10-31T00:24:28;1.70;;;1.60;;
23617;SDS011;18207;32.078;34.818;2023-10-31T00:26:59;1.77;;;1.67;;
23617;SDS011;18207;32.078;34.818;2023-10-31T00:29:28;1.80;;;1.70;;
23617;SDS011;18207;32.078;34.818;2023-10-31T00:31:58;1.60;;;1.50;;
23617;SDS011;18207;32.078;34.818;2023-10-31T00:34:30;1.55;;;1.45;;
23617;SDS011;18207;32.078;34.818;2023-10-31T00:37:01;1.58;;;1.52;;
23617;SDS011;18207;32.078;34.818;2023-10-31T00:39:34;1.58;;;1.38;;
23617;SDS011;18207;32.078;34.818;2023-10-31T00:42:04;1.60;;;1.50;;
23617;SDS011;18207;32.078;34.818;2023-10-31T00:44:34;1.60;;;1.50;;
23617;SDS011;18207;32.078;34.818;2023-10-31T00:47:03;1.73;;;1.63;;
23617;SDS011;18207;32.078;34.818;2023-10-31T00:49:33;1.40;;;1.40;;
23617;SDS011;18207;32.078;34.818;2023-10-31T00:52:05;1.58;;;1.48;;
23617;SDS011;18207;32.078;34.818;2023-10-31T00:54:48;1.80;;;1.70;;
23617;SDS011;18207;32.078;34.818;2023-10-31T00:57:18;1.85;;;1.75;;
23617;SDS011;18207;32.078;34.818;2023-10-31T00:59:48;1.70;;;1.60;;
23617;SDS011;18207;32.078;34.818;2023-10-31T01:02:20;1.65;;;1.55;;
23617;SDS011;18207;32.078;34.818;2023-10-31T01:04:50;1.75;;;1.65;;
23617;SDS011;18207;32.078;34.818;2023-10-31T01:07:30;1.60;;;1.50;;
23617;SDS011;18207;32.078;34.818;2023-10-31T01:10:00;1.52;;;1.42;;
23617;SDS011;18207;32.078;34.818;2023-10-31T01:12:30;1.50;;;1.40;;
23617;SDS011;18207;32.078;34.818;2023-10-31T01:15:00;1.33;;;1.33;;
23617;SDS011;18207;32.078;34.818;2023-10-31T01:17:29;2.10;;;2.00;;
23617;SDS011;18207;32.078;34.818;2023-10-31T01:19:59;1.73;;;1.63;;
23617;SDS011;18207;32.078;34.818;2023-10-31T01:22:30;1.80;;;1.70;;
23617;SDS011;18207;32.078;34.818;2023-10-31T01:25:15;1.55;;;1.45;;
23617;SDS011;18207;32.078;34.818;2023-10-31T01:27:44;1.98;;;1.80;;
23617;SDS011;18207;32.078;34.818;2023-10-31T01:30:17;1.70;;;1.60;;
23617;SDS011;18207;32.078;34.818;2023-10-31T01:32:48;2.50;;;1.80;;
23617;SDS011;18207;32.078;34.818;2023-10-31T01:35:18;1.67;;;1.58;;
23617;SDS011;18207;32.078;34.818;2023-10-31T01:37:49;1.80;;;1.70;;
23617;SDS011;18207;32.078;34.818;2023-10-31T01:40:19;1.33;;;1.33;;
23617;SDS011;18207;32.078;34.818;2023-10-31T01:42:49;1.63;;;1.52;;
23617;SDS011;18207;32.078;34.818;2023-10-31T01:45:18;1.63;;;1.52;;
23617;SDS011;18207;32.078;34.818;2023-10-31T01:47:48;1.88;;;1.77;;
23617;SDS011;18207;32.078;34.818;2023-10-31T01:50:32;2.17;;;1.98;;
23617;SDS011;18207;32.078;34.818;2023-10-31T01:53:03;1.77;;;1.67;;
23617;SDS011;18207;32.078;34.818;2023-10-31T01:55:33;1.70;;;1.60;;
23617;SDS011;18207;32.078;34.818;2023-10-31T01:58:02;1.75;;;1.65;;
23617;SDS011;18207;32.078;34.818;2023-10-31T02:00:32;1.92;;;1.83;;
23617;SDS011;18207;32.078;34.818;2023-10-31T02:03:02;1.83;;;1.73;;
23617;SDS011;18207;32.078;34.818;2023-10-31T02:05:34;2.20;;;1.83;;
23617;SDS011;18207;32.078;34.818;2023-10-31T02:08:05;1.83;;;1.70;;
23617;SDS011;18207;32.078;34.818;2023-10-31T02:10:35;1.80;;;1.70;;
23617;SDS011;18207;32.078;34.818;2023-10-31T02:13:14;1.90;;;1.80;;
23617;SDS011;18207;32.078;34.818;2023-10-31T02:15:46;1.88;;;1.77;;
23617;SDS011;18207;32.078;34.818;2023-10-31T02:18:16;2.05;;;1.80;;
23617;SDS011;18207;32.078;34.818;2023-10-31T02:23:38;1.67;;;1.58;;
23617;SDS011;18207;32.078;34.818;2023-10-31T02:26:07;1.85;;;1.75;;
23617;SDS011;18207;32.078;34.818;2023-10-31T02:28:37;1.80;;;1.70;;
23617;SDS011;18207;32.078;34.818;2023-10-31T02:31:16;1.90;;;1.80;;
23617;SDS011;18207;32.078;34.818;2023-10-31T02:33:46;1.90;;;1.80;;
23617;SDS011;18207;32.078;34.818;2023-10-31T02:36:16;1.80;;;1.70;;
23617;SDS011;18207;32.078;34.818;2023-10-31T02:38:48;2.00;;;1.90;;
23617;SDS011;18207;32.078;34.818;2023-10-31T02:41:17;1.65;;;1.55;;
23617;SDS011;18207;32.078;34.818;2023-10-31T02:43:47;1.65;;;1.55;;
23617;SDS011;18207;32.078;34.818;2023-10-31T02:46:17;1.90;;;1.80;;
23617;SDS011;18207;32.078;34.818;2023-10-31T02:48:46;1.85;;;1.75;;
23617;SDS011;18207;32.078;34.818;2023-10-31T02:51:16;1.85;;;1.67;;
23617;SDS011;18207;32.078;34.818;2023-10-31T02:53:48;2.13;;;2.00;;
23617;SDS011;18207;32.078;34.818;2023-10-31T02:56:18;1.63;;;1.52;;
23617;SDS011;18207;32.078;34.818;2023-10-31T02:58:48;1.55;;;1.48;;
23617;SDS011;18207;32.078;34.818;2023-10-31T03:01:28;1.80;;;1.70;;
23617;SDS011;18207;32.078;34.818;2023-10-31T03:03:57;1.70;;;1.60;;
23617;SDS011;18207;32.078;34.818;2023-10-31T03:06:27;1.65;;;1.55;;
23617;SDS011;18207;32.078;34.818;2023-10-31T03:08:58;1.92;;;1.83;;
23617;SDS011;18207;32.078;34.818;2023-10-31T03:11:28;2.00;;;1.90;;
23617;SDS011;18207;32.078;34.818;2023-10-31T03:13:59;1.90;;;1.80;;
23617;SDS011;18207;32.078;34.818;2023-10-31T03:16:29;1.70;;;1.60;;
23617;SDS011;18207;32.078;34.818;2023-10-31T03:19:08;1.80;;;1.70;;
23617;SDS011;18207;32.078;34.818;2023-10-31T03:21:39;2.53;;;1.70;;
23617;SDS011;18207;32.078;34.818;2023-10-31T03:24:10;1.80;;;1.70;;
23617;SDS011;18207;32.078;34.818;2023-10-31T03:26:40;1.90;;;1.80;;
23617;SDS011;18207;32.078;34.818;2023-10-31T03:29:10;1.80;;;1.70;;
23617;SDS011;18207;32.078;34.818;2023-10-31T03:31:40;1.77;;;1.67;;
23617;SDS011;18207;32.078;34.818;2023-10-31T03:34:13;1.70;;;1.60;;
23617;SDS011;18207;32.078;34.818;2023-10-31T03:36:42;1.80;;;1.70;;
23617;SDS011;18207;32.078;34.818;2023-10-31T03:39:14;1.75;;;1.65;;
23617;SDS011;18207;32.078;34.818;2023-10-31T03:41:44;2.13;;;1.90;;
23617;SDS011;18207;32.078;34.818;2023-10-31T03:44:14;2.97;;;2.00;;
23617;SDS011;18207;32.078;34.818;2023-10-31T03:46:44;1.73;;;1.63;;
23617;SDS011;18207;32.078;34.818;2023-10-31T03:49:15;1.90;;;1.80;;
23617;SDS011;18207;32.078;34.818;2023-10-31T03:51:45;2.10;;;1.90;;
23617;SDS011;18207;32.078;34.818;2023-10-31T03:54:18;1.90;;;1.80;;
23617;SDS011;18207;32.078;34.818;2023-10-31T03:56:48;1.90;;;1.80;;
23617;SDS011;18207;32.078;34.818;2023-10-31T03:59:17;1.80;;;1.70;;
23617;SDS011;18207;32.078;34.818;2023-10-31T04:01:47;2.28;;;1.73;;
23617;SDS011;18207;32.078;34.818;2023-10-31T04:04:17;1.67;;;1.58;;
23617;SDS011;18207;32.078;34.818;2023-10-31T04:06:47;1.85;;;1.75;;
23617;SDS011;18207;32.078;34.818;2023-10-31T04:09:16;2.15;;;2.00;;
23617;SDS011;18207;32.078;34.818;2023-10-31T04:11:47;2.75;;;1.90;;
23617;SDS011;18207;32.078;34.818;2023-10-31T04:14:17;1.75;;;1.65;;
23617;SDS011;18207;32.078;34.818;2023-10-31T04:16:47;1.90;;;1.80;;
23617;SDS011;18207;32.078;34.818;2023-10-31T04:19:17;1.75;;;1.65;;
23617;SDS011;18207;32.078;34.818;2023-10-31T04:21:46;1.80;;;1.70;;
23617;SDS011;18207;32.078;34.818;2023-10-31T04:24:16;2.13;;;1.98;;
23617;SDS011;18207;32.078;34.818;2023-10-31T04:26:47;1.83;;;1.73;;
23617;SDS011;18207;32.078;34.818;2023-10-31T04:29:17;1.90;;;1.70;;
23617;SDS011;18207;32.078;34.818;2023-10-31T04:31:46;2.00;;;1.90;;
23617;SDS011;18207;32.078;34.818;2023-10-31T04:34:16;1.70;;;1.60;;
23617;SDS011;18207;32.078;34.818;2023-10-31T04:36:46;1.73;;;1.60;;
23617;SDS011;18207;32.078;34.818;2023-10-31T04:39:16;1.65;;;1.55;;
23617;SDS011;18207;32.078;34.818;2023-10-31T04:41:47;2.28;;;2.10;;
23617;SDS011;18207;32.078;34.818;2023-10-31T04:44:17;1.80;;;1.70;;
23617;SDS011;18207;32.078;34.818;2023-10-31T04:46:46;1.90;;;1.80;;
23617;SDS011;18207;32.078;34.818;2023-10-31T04:49:16;2.25;;;2.00;;
23617;SDS011;18207;32.078;34.818;2023-10-31T04:51:47;1.90;;;1.60;;
23617;SDS011;18207;32.078;34.818;2023-10-31T04:54:19;1.70;;;1.60;;
23617;SDS011;18207;32.078;34.818;2023-10-31T04:56:48;2.22;;;1.80;;
23617;SDS011;18207;32.078;34.818;2023-10-31T04:59:18;1.95;;;1.85;;
23617;SDS011;18207;32.078;34.818;2023-10-31T05:01:48;1.90;;;1.80;;
23617;SDS011;18207;32.078;34.818;2023-10-31T05:04:19;2.13;;;2.00;;
23617;SDS011;18207;32.078;34.818;2023-10-31T05:06:49;2.28;;;1.88;;
23617;SDS011;18207;32.078;34.818;2023-10-31T05:09:20;2.00;;;1.90;;
23617;SDS011;18207;32.078;34.818;2023-10-31T05:11:50;1.55;;;1.45;;
23617;SDS011;18207;32.078;34.818;2023-10-31T05:14:20;1.90;;;1.80;;
23617;SDS011;18207;32.078;34.818;2023-10-31T05:16:50;2.13;;;2.00;;
23617;SDS011;18207;32.078;34.818;2023-10-31T05:19:19;1.80;;;1.70;;
23617;SDS011;18207;32.078;34.818;2023-10-31T05:21:49;2.60;;;1.88;;
23617;SDS011;18207;32.078;34.818;2023-10-31T05:24:23;1.80;;;1.70;;
23617;SDS011;18207;32.078;34.818;2023-10-31T05:27:03;1.70;;;1.60;;
23617;SDS011;18207;32.078;34.818;2023-10-31T05:29:34;2.50;;;1.85;;
23617;SDS011;18207;32.078;34.818;2023-10-31T05:32:04;1.95;;;1.60;;
23617;SDS011;18207;32.078;34.818;2023-10-31T05:34:34;1.90;;;1.80;;
23617;SDS011;18207;32.078;34.818;2023-10-31T05:37:13;1.88;;;1.77;;
23617;SDS011;18207;32.078;34.818;2023-10-31T05:39:44;1.90;;;1.80;;
23617;SDS011;18207;32.078;34.818;2023-10-31T05:42:14;1.65;;;1.55;;
23617;SDS011;18207;32.078;34.818;2023-10-31T05:44:44;1.70;;;1.60;;
23617;SDS011;18207;32.078;34.818;2023-10-31T05:47:13;1.58;;;1.48;;
23617;SDS011;18207;32.078;34.818;2023-10-31T05:49:43;1.77;;;1.67;;
23617;SDS011;18207;32.078;34.818;2023-10-31T05:52:14;2.05;;;1.70;;
23617;SDS011;18207;32.078;34.818;2023-10-31T05:54:45;1.98;;;1.80;;
23617;SDS011;18207;32.078;34.818;2023-10-31T05:57:15;1.83;;;1.73;;
23617;SDS011;18207;32.078;34.818;2023-10-31T05:59:45;1.80;;;1.70;;
23617;SDS011;18207;32.078;34.818;2023-10-31T06:02:14;2.00;;;1.90;;
23617;SDS011;18207;32.078;34.818;2023-10-31T06:04:44;1.70;;;1.60;;
23617;SDS011;18207;32.078;34.818;2023-10-31T06:07:14;1.90;;;1.80;;
23617;SDS011;18207;32.078;34.818;2023-10-31T06:09:43;2.10;;;1.90;;
23617;SDS011;18207;32.078;34.818;2023-10-31T06:12:15;1.80;;;1.70;;
23617;SDS011;18207;32.078;34.818;2023-10-31T06:14:45;1.70;;;1.60;;
23617;SDS011;18207;32.078;34.818;2023-10-31T06:17:16;1.70;;;1.60;;
23617;SDS011;18207;32.078;34.818;2023-10-31T06:19:49;1.80;;;1.70;;
23617;SDS011;18207;32.078;34.818;2023-10-31T06:22:18;1.70;;;1.60;;
23617;SDS011;18207;32.078;34.818;2023-10-31T06:24:49;1.95;;;1.75;;
23617;SDS011;18207;32.078;34.818;2023-10-31T06:27:19;1.70;;;1.60;;
23617;SDS011;18207;32.078;34.818;2023-10-31T06:29:49;1.60;;;1.50;;
23617;SDS011;18207;32.078;34.818;2023-10-31T06:32:37;1.63;;;1.52;;
23617;SDS011;18207;32.078;34.818;2023-10-31T06:35:07;1.70;;;1.60;;
23617;SDS011;18207;32.078;34.818;2023-10-31T06:37:37;1.75;;;1.58;;
23617;SDS011;18207;32.078;34.818;2023-10-31T06:40:09;1.60;;;1.50;;
23617;SDS011;18207;32.078;34.818;2023-10-31T06:42:48;1.90;;;1.80;;
23617;SDS011;18207;32.078;34.818;2023-10-31T06:45:18;1.80;;;1.70;;
23617;SDS011;18207;32.078;34.818;2023-10-31T06:47:48;1.50;;;1.40;;
23617;SDS011;18207;32.078;34.818;2023-10-31T06:50:17;1.80;;;1.70;;
23617;SDS011;18207;32.078;34.818;2023-10-31T06:52:50;1.63;;;1.52;;
23617;SDS011;18207;32.078;34.818;2023-10-31T06:55:21;1.40;;;1.35;;
23617;SDS011;18207;32.078;34.818;2023-10-31T06:57:51;2.03;;;1.60;;
23617;SDS011;18207;32.078;34.818;2023-10-31T07:00:20;1.60;;;1.50;;
23617;SDS011;18207;32.078;34.818;2023-10-31T07:02:50;1.55;;;1.45;;
23617;SDS011;18207;32.078;34.818;2023-10-31T07:05:20;1.80;;;1.70;;
23617;SDS011;18207;32.078;34.818;2023-10-31T07:07:50;1.50;;;1.40;;
23617;SDS011;18207;32.078;34.818;2023-10-31T07:10:21;1.73;;;1.63;;
23617;SDS011;18207;32.078;34.818;2023-10-31T07:12:51;1.70;;;1.60;;
23617;SDS011;18207;32.078;34.818;2023-10-31T07:15:21;1.60;;;1.50;;
23617;SDS011;18207;32.078;34.818;2023-10-31T07:17:51;2.22;;;1.65;;
23617;SDS011;18207;32.078;34.818;2023-10-31T07:20:20;2.13;;;1.77;;
23617;SDS011;18207;32.078;34.818;2023-10-31T07:22:50;1.48;;;1.40;;
23617;SDS011;18207;32.078;34.818;2023-10-31T07:25:21;1.38;;;1.27;;
23617;SDS011;18207;32.078;34.818;2023-10-31T07:27:51;1.60;;;1.50;;
23617;SDS011;18207;32.078;34.818;2023-10-31T07:30:21;1.50;;;1.42;;
23617;SDS011;18207;32.078;34.818;2023-10-31T07:32:54;1.63;;;1.50;;
23617;SDS011;18207;32.078;34.818;2023-10-31T07:35:23;1.65;;;1.55;;
23617;SDS011;18207;32.078;34.818;2023-10-31T07:37:53;1.80;;;1.70;;
23617;SDS011;18207;32.078;34.818;2023-10-31T07:40:25;1.67;;;1.58;;
23617;SDS011;18207;32.078;34.818;2023-10-31T07:42:55;1.80;;;1.70;;
23617;SDS011;18207;32.078;34.818;2023-10-31T07:45:25;1.80;;;1.70;;
23617;SDS011;18207;32.078;34.818;2023-10-31T07:47:55;1.63;;;1.52;;
23617;SDS011;18207;32.078;34.818;2023-10-31T07:50:29;1.77;;;1.67;;
23617;SDS011;18207;32.078;34.818;2023-10-31T07:52:59;1.85;;;1.75;;
23617;SDS011;18207;32.078;34.818;2023-10-31T07:55:31;1.70;;;1.60;;
23617;SDS011;18207;32.078;34.818;2023-10-31T07:58:01;2.25;;;1.85;;
23617;SDS011;18207;32.078;34.818;2023-10-31T08:00:37;1.75;;;1.65;;
23617;SDS011;18207;32.078;34.818;2023-10-31T08:03:07;1.50;;;1.40;;
23617;SDS011;18207;32.078;34.818;2023-10-31T08:05:37;2.20;;;1.85;;
23617;SDS011;18207;32.078;34.818;2023-10-31T08:08:07;4.45;;;3.75;;
23617;SDS011;18207;32.078;34.818;2023-10-31T08:10:38;3.90;;;3.15;;
23617;SDS011;18207;32.078;34.818;2023-10-31T08:13:11;4.60;;;3.95;;
23617;SDS011;18207;32.078;34.818;2023-10-31T08:15:40;3.40;;;3.10;;
23617;SDS011;18207;32.078;34.818;2023-10-31T08:18:10;2.65;;;2.45;;
23617;SDS011;18207;32.078;34.818;2023-10-31T08:20:39;2.47;;;2.30;;
23617;SDS011;18207;32.078;34.818;2023-10-31T08:23:10;2.10;;;1.90;;
23617;SDS011;18207;32.078;34.818;2023-10-31T08:25:41;2.60;;;2.40;;
23617;SDS011;18207;32.078;34.818;2023-10-31T08:28:11;2.50;;;2.30;;
23617;SDS011;18207;32.078;34.818;2023-10-31T08:30:41;2.42;;;2.28;;
23617;SDS011;18207;32.078;34.818;2023-10-31T08:33:11;2.10;;;2.00;;
23617;SDS011;18207;32.078;34.818;2023-10-31T08:35:40;1.90;;;1.80;;
23617;SDS011;18207;32.078;34.818;2023-10-31T08:38:11;1.90;;;1.80;;
23617;SDS011;18207;32.078;34.818;2023-10-31T08:40:54;1.70;;;1.60;;
23617;SDS011;18207;32.078;34.818;2023-10-31T08:43:24;2.00;;;1.90;;
23617;SDS011;18207;32.078;34.818;2023-10-31T08:45:54;1.77;;;1.67;;
23617;SDS011;18207;32.078;34.818;2023-10-31T08:48:23;1.70;;;1.60;;
23617;SDS011;18207;32.078;34.818;2023-10-31T08:50:53;1.80;;;1.70;;
23617;SDS011;18207;32.078;34.818;2023-10-31T08:53:22;1.80;;;1.70;;
23617;SDS011;18207;32.078;34.818;2023-10-31T08:55:54;1.70;;;1.60;;
23617;SDS011;18207;32.078;34.818;2023-10-31T08:58:24;1.70;;;1.60;;
23617;SDS011;18207;32.078;34.818;2023-10-31T09:00:54;1.90;;;1.80;;
23617;SDS011;18207;32.078;34.818;2023-10-31T09:03:23;2.00;;;1.70;;
23617;SDS011;18207;32.078;34.818;2023-10-31T09:05:53;1.67;;;1.58;;
23617;SDS011;18207;32.078;34.818;2023-10-31T09:08:23;1.95;;;1.85;;
23617;SDS011;18207;32.078;34.818;2023-10-31T09:10:55;1.80;;;1.70;;
23617;SDS011;18207;32.078;34.818;2023-10-31T09:13:24;1.70;;;1.60;;
23617;SDS011;18207;32.078;34.818;2023-10-31T09:15:54;1.30;;;1.20;;
23617;SDS011;18207;32.078;34.818;2023-10-31T09:18:23;1.38;;;1.38;;
23617;SDS011;18207;32.078;34.818;2023-10-31T09:20:53;1.75;;;1.65;;
23617;SDS011;18207;32.078;34.818;2023-10-31T09:23:22;1.98;;;1.80;;
23617;SDS011;18207;32.078;34.818;2023-10-31T09:25:52;1.08;;;1.08;;
23617;SDS011;18207;32.078;34.818;2023-10-31T09:28:24;1.70;;;1.60;;
23617;SDS011;18207;32.078;34.818;2023-10-31T09:30:53;1.90;;;1.80;;
23617;SDS011;18207;32.078;34.818;2023-10-31T09:33:23;1.80;;;1.70;;
23617;SDS011;18207;32.078;34.818;2023-10-31T09:35:53;1.63;;;1.52;;
23617;SDS011;18207;32.078;34.818;2023-10-31T09:38:22;1.83;;;1.73;;
23617;SDS011;18207;32.078;34.818;2023-10-31T09:40:52;1.60;;;1.50;;
23617;SDS011;18207;32.078;34.818;2023-10-31T09:43:23;1.60;;;1.50;;
23617;SDS011;18207;32.078;34.818;2023-10-31T09:45:53;1.70;;;1.60;;
23617;SDS011;18207;32.078;34.818;2023-10-31T09:48:24;1.80;;;1.70;;
23617;SDS011;18207;32.078;34.818;2023-10-31T09:50:54;1.73;;;1.63;;
23617;SDS011;18207;32.078;34.818;2023-10-31T09:53:24;1.73;;;1.48;;
23617;SDS011;18207;32.078;34.818;2023-10-31T09:55:59;1.85;;;1.75;;
23617;SDS011;18207;32.078;34.818;2023-10-31T09:58:29;1.52;;;1.42;;
23617;SDS011;18207;32.078;34.818;2023-10-31T10:00:58;1.60;;;1.50;;
23617;SDS011;18207;32.078;34.818;2023-10-31T10:03:28;1.45;;;1.35;;
23617;SDS011;18207;32.078;34.818;2023-10-31T10:05:58;1.48;;;1.38;;
23617;SDS011;18207;32.078;34.818;2023-10-31T10:08:30;1.50;;;1.40;;
23617;SDS011;18207;32.078;34.818;2023-10-31T10:11:01;1.60;;;1.50;;
23617;SDS011;18207;32.078;34.818;2023-10-31T10:13:32;1.63;;;1.52;;
23617;SDS011;18207;32.078;34.818;2023-10-31T10:16:01;1.60;;;1.50;;
23617;SDS011;18207;32.078;34.818;2023-10-31T10:18:32;1.52;;;1.42;;
23617;SDS011;18207;32.078;34.818;2023-10-31T10:21:06;1.70;;;1.60;;
23617;SDS011;18207;32.078;34.818;2023-10-31T10:23:37;1.33;;;1.33;;
23617;SDS011;18207;32.078;34.818;2023-10-31T10:26:09;1.40;;;1.40;;
23617;SDS011;18207;32.078;34.818;2023-10-31T10:28:38;1.80;;;1.70;;
23617;SDS011;18207;32.078;34.818;2023-10-31T10:31:08;2.05;;;1.90;;
23617;SDS011;18207;32.078;34.818;2023-10-31T10:33:41;1.85;;;1.73;;
23617;SDS011;18207;32.078;34.818;2023-10-31T10:36:11;1.83;;;1.73;;
23617;SDS011;18207;32.078;34.818;2023-10-31T10:38:42;1.40;;;1.40;;
23617;SDS011;18207;32.078;34.818;2023-10-31T10:41:19;1.70;;;1.60;;
23617;SDS011;18207;32.078;34.818;2023-10-31T10:43:51;1.52;;;1.42;;
23617;SDS011;18207;32.078;34.818;2023-10-31T10:46:24;1.60;;;1.50;;
23617;SDS011;18207;32.078;34.818;2023-10-31T10:48:55;1.50;;;1.40;;
23617;SDS011;18207;32.078;34.818;2023-10-31T10:51:29;1.50;;;1.40;;
23617;SDS011;18207;32.078;34.818;2023-10-31T10:54:14;1.60;;;1.50;;
23617;SDS011;18207;32.078;34.818;2023-10-31T10:56:55;1.40;;;1.40;;
23617;SDS011;18207;32.078;34.818;2023-10-31T10:59:35;1.48;;;1.38;;
23617;SDS011;18207;32.078;34.818;2023-10-31T11:02:10;1.50;;;1.42;;
23617;SDS011;18207;32.078;34.818;2023-10-31T11:04:42;1.42;;;1.35;;
23617;SDS011;18207;32.078;34.818;2023-10-31T11:07:12;1.60;;;1.50;;
23617;SDS011;18207;32.078;34.818;2023-10-31T11:09:43;1.67;;;1.58;;
23617;SDS011;18207;32.078;34.818;2023-10-31T11:12:17;1.52;;;1.42;;
23617;SDS011;18207;32.078;34.818;2023-10-31T11:14:49;1.55;;;1.45;;
23617;SDS011;18207;32.078;34.818;2023-10-31T11:17:22;1.40;;;1.30;;
23617;SDS011;18207;32.078;34.818;2023-10-31T11:19:56;1.35;;;1.25;;
23617;SDS011;18207;32.078;34.818;2023-10-31T11:22:36;1.55;;;1.45;;
23617;SDS011;18207;32.078;34.818;2023-10-31T11:25:08;1.60;;;1.50;;
23617;SDS011;18207;32.078;34.818;2023-10-31T11:27:53;1.88;;;1.20;;
23617;SDS011;18207;32.078;34.818;2023-10-31T11:30:38;1.27;;;1.23;;
23617;SDS011;18207;32.078;34.818;2023-10-31T11:33:14;1.48;;;1.38;;
23617;SDS011;18207;32.078;34.818;2023-10-31T11:35:50;1.45;;;1.38;;
23617;SDS011;18207;32.078;34.818;2023-10-31T11:38:31;1.40;;;1.40;;
23617;SDS011;18207;32.078;34.818;2023-10-31T11:41:03;1.50;;;1.40;;
23617;SDS011;18207;32.078;34.818;2023-10-31T11:43:39;1.60;;;1.52;;
23617;SDS011;18207;32.078;34.818;2023-10-31T11:46:20;1.52;;;1.42;;
23617;SDS011;18207;32.078;34.818;2023-10-31T11:48:54;1.80;;;1.70;;
23617;SDS011;18207;32.078;34.818;2023-10-31T11:51:24;1.27;;;1.27;;
23617;SDS011;18207;32.078;34.818;2023-10-31T11:53:54;1.65;;;1.55;;
23617;SDS011;18207;32.078;34.818;2023-10-31T11:56:25;1.55;;;1.45;;
23617;SDS011;18207;32.078;34.818;2023-10-31T11:58:57;1.60;;;1.50;;
23617;SDS011;18207;32.078;34.818;2023-10-31T12:01:29;1.23;;;1.23;;
23617;SDS011;18207;32.078;34.818;2023-10-31T12:03:59;1.63;;;1.52;;
23617;SDS011;18207;32.078;34.818;2023-10-31T12:06:34;1.27;;;1.27;;
23617;SDS011;18207;32.078;34.818;2023-10-31T12:09:03;1.30;;;1.23;;
23617;SDS011;18207;32.078;34.818;2023-10-31T12:11:37;1.60;;;1.50;;
23617;SDS011;18207;32.078;34.818;2023-10-31T12:14:18;1.52;;;1.42;;
23617;SDS011;18207;32.078;34.818;2023-10-31T12:16:48;1.40;;;1.30;;
23617;SDS011;18207;32.078;34.818;2023-10-31T12:19:20;1.70;;;1.60;;
23617;SDS011;18207;32.078;34.818;2023-10-31T12:21:49;1.63;;;1.52;;
23617;SDS011;18207;32.078;34.818;2023-10-31T12:24:19;1.70;;;1.60;;
23617;SDS011;18207;32.078;34.818;2023-10-31T12:26:49;1.55;;;1.45;;
23617;SDS011;18207;32.078;34.818;2023-10-31T12:29:21;1.70;;;1.60;;
23617;SDS011;18207;32.078;34.818;2023-10-31T12:31:51;3.67;;;1.50;;
23617;SDS011;18207;32.078;34.818;2023-10-31T12:34:24;1.55;;;1.45;;
23617;SDS011;18207;32.078;34.818;2023-10-31T12:36:54;1.65;;;1.55;;
23617;SDS011;18207;32.078;34.818;2023-10-31T12:39:26;1.48;;;1.48;;
23617;SDS011;18207;32.078;34.818;2023-10-31T12:41:57;1.27;;;1.27;;
23617;SDS011;18207;32.078;34.818;2023-10-31T12:44:29;1.50;;;1.40;;
23617;SDS011;18207;32.078;34.818;2023-10-31T12:47:01;1.67;;;1.58;;
23617;SDS011;18207;32.078;34.818;2023-10-31T12:49:35;1.70;;;1.60;;
23617;SDS011;18207;32.078;34.818;2023-10-31T12:52:05;1.70;;;1.60;;
23617;SDS011;18207;32.078;34.818;2023-10-31T12:54:35;1.70;;;1.60;;
23617;SDS011;18207;32.078;34.818;2023-10-31T12:57:06;1.48;;;1.40;;
23617;SDS011;18207;32.078;34.818;2023-10-31T12:59:39;1.45;;;1.35;;
23617;SDS011;18207;32.078;34.818;2023-10-31T13:02:08;1.35;;;1.35;;
23617;SDS011;18207;32.078;34.818;2023-10-31T13:04:38;1.50;;;1.40;;
23617;SDS011;18207;32.078;34.818;2023-10-31T13:07:08;1.67;;;1.58;;
23617;SDS011;18207;32.078;34.818;2023-10-31T13:09:38;1.70;;;1.60;;
23617;SDS011;18207;32.078;34.818;2023-10-31T13:12:09;1.50;;;1.40;;
23617;SDS011;18207;32.078;34.818;2023-10-31T13:14:41;1.58;;;1.48;;
23617;SDS011;18207;32.078;34.818;2023-10-31T13:17:10;1.60;;;1.50;;
23617;SDS011;18207;32.078;34.818;2023-10-31T13:19:40;1.27;;;1.27;;
23617;SDS011;18207;32.078;34.818;2023-10-31T13:22:09;1.50;;;1.40;;
23617;SDS011;18207;32.078;34.818;2023-10-31T13:24:39;1.42;;;1.42;;
23617;SDS011;18207;32.078;34.818;2023-10-31T13:27:09;1.50;;;1.40;;
23617;SDS011;18207;32.078;34.818;2023-10-31T13:29:44;1.75;;;1.65;;
23617;SDS011;18207;32.078;34.818;2023-10-31T13:32:16;1.70;;;1.60;;
23617;SDS011;18207;32.078;34.818;2023-10-31T13:34:47;1.55;;;1.45;;
23617;SDS011;18207;32.078;34.818;2023-10-31T13:37:16;1.50;;;1.40;;
23617;SDS011;18207;32.078;34.818;2023-10-31T13:39:46;1.33;;;1.33;;
23617;SDS011;18207;32.078;34.818;2023-10-31T13:42:16;1.80;;;1.70;;
23617;SDS011;18207;32.078;34.818;2023-10-31T13:44:47;1.42;;;1.35;;
23617;SDS011;18207;32.078;34.818;2023-10-31T13:47:17;1.50;;;1.40;;
23617;SDS011;18207;32.078;34.818;2023-10-31T13:49:46;1.60;;;1.50;;
23617;SDS011;18207;32.078;34.818;2023-10-31T13:52:16;1.60;;;1.50;;
23617;SDS011;18207;32.078;34.818;2023-10-31T13:54:49;1.60;;;1.50;;
23617;SDS011;18207;32.078;34.818;2023-10-31T13:57:18;1.50;;;1.50;;
23617;SDS011;18207;32.078;34.818;2023-10-31T13:59:51;1.33;;;1.33;;
23617;SDS011;18207;32.078;34.818;2023-10-31T14:02:21;1.70;;;1.60;;
23617;SDS011;18207;32.078;34.818;2023-10-31T14:04:50;1.80;;;1.70;;
23617;SDS011;18207;32.078;34.818;2023-10-31T14:07:21;1.63;;;1.52;;
23617;SDS011;18207;32.078;34.818;2023-10-31T14:09:51;1.58;;;1.48;;
23617;SDS011;18207;32.078;34.818;2023-10-31T14:12:23;1.52;;;1.42;;
23617;SDS011;18207;32.078;34.818;2023-10-31T14:14:55;1.38;;;1.30;;
23617;SDS011;18207;32.078;34.818;2023-10-31T14:17:26;1.80;;;1.70;;
23617;SDS011;18207;32.078;34.818;2023-10-31T14:20:01;1.45;;;1.42;;
23617;SDS011;18207;32.078;34.818;2023-10-31T14:22:32;1.45;;;1.35;;
23617;SDS011;18207;32.078;34.818;2023-10-31T14:25:02;1.60;;;1.50;;
23617;SDS011;18207;32.078;34.818;2023-10-31T14:27:34;1.40;;;1.30;;
23617;SDS011;18207;32.078;34.818;2023-10-31T14:30:07;1.45;;;1.40;;
23617;SDS011;18207;32.078;34.818;2023-10-31T14:32:38;1.25;;;1.25;;
23617;SDS011;18207;32.078;34.818;2023-10-31T14:35:08;1.38;;;1.30;;
23617;SDS011;18207;32.078;34.818;2023-10-31T14:37:38;1.48;;;1.45;;
23617;SDS011;18207;32.078;34.818;2023-10-31T14:40:08;1.30;;;1.30;;
23617;SDS011;18207;32.078;34.818;2023-10-31T14:42:39;1.42;;;1.33;;
23617;SDS011;18207;32.078;34.818;2023-10-31T14:45:10;1.42;;;1.33;;
23617;SDS011;18207;32.078;34.818;2023-10-31T14:47:40;1.60;;;1.50;;
23617;SDS011;18207;32.078;34.818;2023-10-31T14:50:09;1.40;;;1.30;;
23617;SDS011;18207;32.078;34.818;2023-10-31T14:52:39;1.23;;;1.23;;
23617;SDS011;18207;32.078;34.818;2023-10-31T14:55:08;1.50;;;1.40;;
23617;SDS011;18207;32.078;34.818;2023-10-31T14:57:39;1.63;;;1.52;;
23617;SDS011;18207;32.078;34.818;2023-10-31T15:00:13;1.52;;;1.42;;